createdAt,value
2023-04-15T00:01:06.026Z,100.00
2023-04-15T00:04:09.646Z,100.00
2023-04-15T00:07:13.022Z,100.00
2023-04-15T00:10:16.244Z,100.00
2023-04-15T00:13:19.143Z,100.00
2023-04-15T00:16:22.661Z,100.00
2023-04-15T00:19:25.644Z,100.00
2023-04-15T00:22:28.761Z,100.00
2023-04-15T00:25:31.869Z,100.00
2023-04-15T00:28:35.516Z,100.00
2023-04-15T00:31:39.833Z,100.00
2023-04-15T00:34:43.069Z,100.00
2023-04-15T00:37:46.577Z,100.00
2023-04-15T00:40:50.088Z,100.00
2023-04-15T00:43:53.090Z,100.00
2023-04-15T00:46:57.401Z,100.00
2023-04-15T00:50:00.295Z,100.00
2023-04-15T00:53:03.536Z,100.00
2023-04-15T00:56:07.095Z,100.00
2023-04-15T00:59:10.402Z,100.00
2023-04-15T01:02:13.432Z,100.00
2023-04-15T01:05:18.638Z,100.00
2023-04-15T01:08:21.610Z,100.00
2023-04-15T01:11:25.406Z,100.00
2023-04-15T01:14:29.194Z,100.00
2023-04-15T01:17:33.422Z,100.00
2023-04-15T01:20:36.539Z,100.00
2023-04-15T01:23:40.500Z,100.00
2023-04-15T01:26:44.660Z,100.00
2023-04-15T01:29:48.383Z,100.00
2023-04-15T01:32:52.010Z,100.00
2023-04-15T01:35:55.880Z,100.00
2023-04-15T01:39:01.234Z,100.00
2023-04-15T01:42:04.661Z,100.00
2023-04-15T01:45:08.429Z,100.00
2023-04-15T01:48:14.044Z,100.00
2023-04-15T01:51:16.905Z,100.00
2023-04-15T01:54:20.232Z,100.00
2023-04-15T01:57:23.327Z,100.00
2023-04-15T02:00:27.693Z,100.00
2023-04-15T02:03:31.041Z,100.00
2023-04-15T02:06:34.319Z,100.00
2023-04-15T02:09:38.812Z,100.00
2023-04-15T02:12:44.171Z,100.00
2023-04-15T02:15:49.053Z,100.00
2023-04-15T02:18:55.141Z,100.00
2023-04-15T02:21:58.035Z,100.00
2023-04-15T02:25:02.135Z,100.00
2023-04-15T02:28:06.475Z,100.00
2023-04-15T02:31:09.838Z,100.00
2023-04-15T02:34:14.493Z,100.00
2023-04-15T02:37:20.575Z,100.00
2023-04-15T02:40:23.635Z,100.00
2023-04-15T02:43:26.684Z,100.00
2023-04-15T02:46:29.608Z,100.00
2023-04-15T02:49:33.970Z,100.00
2023-04-15T02:52:36.801Z,100.00
2023-04-15T02:55:40.386Z,100.00
2023-04-15T02:58:45.274Z,100.00
2023-04-15T03:01:48.639Z,100.00
2023-04-15T03:04:51.956Z,100.00
2023-04-15T03:07:55.595Z,100.00
2023-04-15T03:11:01.022Z,100.00
2023-04-15T03:14:05.540Z,100.00
2023-04-15T03:17:08.872Z,100.00
2023-04-15T03:20:14.539Z,100.00
2023-04-15T03:23:17.813Z,100.00
2023-04-15T03:26:27.726Z,100.00
2023-04-15T03:29:31.252Z,100.00
2023-04-15T03:32:35.283Z,100.00
2023-04-15T03:35:38.224Z,100.00
2023-04-15T03:38:41.497Z,100.00
2023-04-15T03:41:44.480Z,100.00
2023-04-15T03:44:47.668Z,100.00
2023-04-15T03:47:50.719Z,100.00
2023-04-15T03:50:54.227Z,100.00
2023-04-15T03:53:57.196Z,100.00
2023-04-15T03:57:00.391Z,100.00
2023-04-15T04:00:03.334Z,100.00
2023-04-15T04:03:14.890Z,100.00
2023-04-15T04:06:18.317Z,100.00
2023-04-15T04:09:21.214Z,100.00
2023-04-15T04:12:24.381Z,100.00
2023-04-15T04:15:27.394Z,100.00
2023-04-15T04:18:34.908Z,100.00
2023-04-15T04:21:39.779Z,100.00
2023-04-15T04:24:44.091Z,100.00
2023-04-15T04:27:47.227Z,100.00
2023-04-15T04:30:51.206Z,100.00
2023-04-15T04:33:54.088Z,100.00
2023-04-15T04:36:57.420Z,100.00
2023-04-15T04:40:00.496Z,100.00
2023-04-15T04:43:03.688Z,100.00
2023-04-15T04:46:06.599Z,100.00
2023-04-15T04:49:10.140Z,100.00
2023-04-15T04:52:13.311Z,100.00
2023-04-15T04:55:16.868Z,100.00
2023-04-15T04:58:19.773Z,100.00
2023-04-15T05:01:23.078Z,100.00
2023-04-15T05:04:26.652Z,100.00
2023-04-15T05:07:29.869Z,100.00
2023-04-15T05:10:32.989Z,100.00
2023-04-15T05:13:38.843Z,100.00
2023-04-15T05:16:42.245Z,100.00
2023-04-15T05:19:45.566Z,100.00
2023-04-15T05:22:48.560Z,100.00
2023-04-15T05:25:52.381Z,100.00
2023-04-15T05:28:55.258Z,100.00
2023-04-15T05:31:58.541Z,100.00
2023-04-15T05:35:01.710Z,100.00
2023-04-15T05:38:04.853Z,100.00
2023-04-15T05:41:07.863Z,100.00
2023-04-15T05:44:11.185Z,100.00
2023-04-15T05:47:14.086Z,100.00
2023-04-15T05:50:17.336Z,100.00
2023-04-15T05:53:20.858Z,99.40
2023-04-15T05:56:24.148Z,100.00
2023-04-15T05:59:28.553Z,100.00
2023-04-15T06:02:33.476Z,96.48
2023-04-15T06:05:36.907Z,95.80
2023-04-15T06:08:40.109Z,95.53
2023-04-15T06:11:43.293Z,92.50
2023-04-15T06:14:46.238Z,94.03
2023-04-15T06:17:49.469Z,95.87
2023-04-15T06:20:52.415Z,96.19
2023-04-15T06:23:56.759Z,97.41
2023-04-15T06:26:59.679Z,96.42
2023-04-15T06:30:03.065Z,95.73
2023-04-15T06:33:06.437Z,97.01
2023-04-15T06:36:09.728Z,96.74
2023-04-15T06:39:12.582Z,97.27
2023-04-15T06:42:16.322Z,94.62
2023-04-15T06:45:20.695Z,94.38
2023-04-15T06:48:26.597Z,93.06
2023-04-15T06:51:29.415Z,92.09
2023-04-15T06:54:34.060Z,94.04
2023-04-15T06:57:37.072Z,93.02
2023-04-15T07:00:40.813Z,92.01
2023-04-15T07:03:43.724Z,89.88
2023-04-15T07:06:47.996Z,87.37
2023-04-15T07:09:51.423Z,86.79
2023-04-15T07:12:54.854Z,86.99
2023-04-15T07:15:57.807Z,86.15
2023-04-15T07:19:01.368Z,82.26
2023-04-15T07:22:04.989Z,83.12
2023-04-15T07:25:09.112Z,81.12
2023-04-15T07:28:12.127Z,79.52
2023-04-15T07:31:16.644Z,79.52
2023-04-15T07:34:21.105Z,80.88
2023-04-15T07:37:25.760Z,82.82
2023-04-15T07:40:29.201Z,83.81
2023-04-15T07:43:32.865Z,79.54
2023-04-15T07:46:37.444Z,79.36
2023-04-15T07:49:43.424Z,78.11
2023-04-15T07:52:46.502Z,81.15
2023-04-15T07:55:49.825Z,79.88
2023-04-15T07:58:52.831Z,80.19
2023-04-15T08:01:56.249Z,81.84
2023-04-15T08:05:00.000Z,79.04
2023-04-15T08:08:03.103Z,77.38
2023-04-15T08:11:06.445Z,79.93
2023-04-15T08:14:09.386Z,79.86
2023-04-15T08:17:12.663Z,80.65
2023-04-15T08:20:15.656Z,81.60
2023-04-15T08:23:19.591Z,81.68
2023-04-15T08:26:23.031Z,81.62
2023-04-15T08:29:27.448Z,82.58
2023-04-15T08:32:31.624Z,82.50
2023-04-15T08:35:34.808Z,82.98
2023-04-15T08:38:37.792Z,83.44
2023-04-15T08:41:48.054Z,82.57
2023-04-15T08:44:52.047Z,82.50
2023-04-15T08:47:56.895Z,81.39
2023-04-15T08:51:00.266Z,81.81
2023-04-15T08:54:03.766Z,80.35
2023-04-15T08:57:06.937Z,80.08
2023-04-15T09:00:10.756Z,80.04
2023-04-15T09:03:13.919Z,81.30
2023-04-15T09:06:18.287Z,79.96
2023-04-15T09:09:21.196Z,77.67
2023-04-15T09:12:24.415Z,74.29
2023-04-15T09:15:30.105Z,76.72
2023-04-15T09:18:35.060Z,75.02
2023-04-15T09:21:37.906Z,75.64
2023-04-15T09:24:43.394Z,76.91
2023-04-15T09:27:51.093Z,78.51
2023-04-15T09:31:01.948Z,79.04
2023-04-15T09:34:07.034Z,76.45
2023-04-15T09:37:11.348Z,75.14
2023-04-15T09:40:14.469Z,74.61
2023-04-15T09:43:18.031Z,77.00
2023-04-15T09:46:21.150Z,77.37
2023-04-15T09:49:25.747Z,76.69
2023-04-15T09:52:29.138Z,76.78
2023-04-15T09:55:33.583Z,78.79
2023-04-15T09:58:38.912Z,77.25
2023-04-15T10:01:43.028Z,77.63
2023-04-15T10:04:48.809Z,78.99
2023-04-15T10:07:52.205Z,79.47
2023-04-15T10:10:56.252Z,79.39
2023-04-15T10:13:59.288Z,83.28
2023-04-15T10:17:03.554Z,83.14
2023-04-15T10:20:07.769Z,87.22
2023-04-15T10:23:13.366Z,90.47
2023-04-15T10:26:20.127Z,87.98
2023-04-15T10:29:27.886Z,84.04
2023-04-15T10:32:31.306Z,82.93
2023-04-15T10:35:34.718Z,81.50
2023-04-15T10:38:42.646Z,82.65
2023-04-15T10:41:45.884Z,82.61
2023-04-15T10:44:53.527Z,84.77
2023-04-15T10:47:58.212Z,83.13
2023-04-15T10:51:02.641Z,81.39
2023-04-15T10:54:10.638Z,82.37
2023-04-15T10:57:24.146Z,82.39
2023-04-15T11:00:30.567Z,80.51
2023-04-15T11:03:41.933Z,75.06
2023-04-15T11:06:46.629Z,77.33
2023-04-15T11:09:49.493Z,75.77
2023-04-15T11:12:58.092Z,75.60
2023-04-15T11:16:03.383Z,77.05
2023-04-15T11:19:07.186Z,78.14
2023-04-15T11:22:11.078Z,77.43
2023-04-15T11:25:26.723Z,73.51
2023-04-15T11:28:30.620Z,71.70
2023-04-15T11:31:33.813Z,72.65
2023-04-15T11:34:37.794Z,73.18
2023-04-15T11:37:40.946Z,73.09
2023-04-15T11:40:46.797Z,73.54
2023-04-15T11:43:51.319Z,76.58
2023-04-15T11:46:56.640Z,77.30
2023-04-15T11:50:15.168Z,75.06
2023-04-15T11:53:18.069Z,71.06
2023-04-15T11:56:25.830Z,71.96
2023-04-15T11:59:45.323Z,72.98
2023-04-15T12:02:49.423Z,74.12
2023-04-15T12:06:12.510Z,75.68
2023-04-15T12:09:20.443Z,75.42
2023-04-15T12:12:28.740Z,72.65
2023-04-15T12:15:31.665Z,72.01
2023-04-15T12:18:34.884Z,73.32
2023-04-15T12:21:40.099Z,74.29
2023-04-15T12:24:44.522Z,73.76
2023-04-15T12:27:54.761Z,73.07
2023-04-15T12:30:58.022Z,68.48
2023-04-15T12:34:01.330Z,71.99
2023-04-15T12:37:06.467Z,72.25
2023-04-15T12:40:09.707Z,73.27
2023-04-15T12:43:12.860Z,74.84
2023-04-15T12:46:15.967Z,75.72
2023-04-15T12:49:21.112Z,76.90
2023-04-15T12:52:25.254Z,76.89
2023-04-15T12:55:28.633Z,77.53
2023-04-15T12:58:31.703Z,78.34
2023-04-15T13:01:34.965Z,79.10
2023-04-15T13:04:37.860Z,80.09
2023-04-15T13:07:41.110Z,83.83
2023-04-15T13:10:44.074Z,87.66
2023-04-15T13:13:47.382Z,88.28
2023-04-15T13:16:50.645Z,83.99
2023-04-15T13:19:53.876Z,74.58
2023-04-15T13:22:56.951Z,71.10
2023-04-15T13:26:00.344Z,70.45
2023-04-15T13:29:03.282Z,71.39
2023-04-15T13:32:07.508Z,70.66
2023-04-15T13:35:10.478Z,74.97
2023-04-15T13:38:13.597Z,77.12
2023-04-15T13:41:16.629Z,76.41
2023-04-15T13:44:22.106Z,75.94
2023-04-15T13:47:25.490Z,74.62
2023-04-15T13:50:29.209Z,71.24
2023-04-15T13:53:37.941Z,72.17
2023-04-15T13:56:42.451Z,71.92
2023-04-15T13:59:45.842Z,74.19
2023-04-15T14:02:49.206Z,72.60
2023-04-15T14:05:56.136Z,72.22
2023-04-15T14:08:59.198Z,71.23
2023-04-15T14:12:02.671Z,67.54
2023-04-15T14:15:06.228Z,66.17
2023-04-15T14:18:09.597Z,63.53
2023-04-15T14:21:12.542Z,62.32
2023-04-15T14:24:16.449Z,62.04
2023-04-15T14:27:19.569Z,66.42
2023-04-15T14:30:23.366Z,65.20
2023-04-15T14:33:26.466Z,66.85
2023-04-15T14:36:29.884Z,61.33
2023-04-15T14:39:32.956Z,56.29
2023-04-15T14:42:37.003Z,59.00
2023-04-15T14:45:42.208Z,57.06
2023-04-15T14:48:48.029Z,60.00
2023-04-15T14:51:51.237Z,66.06
2023-04-15T14:54:54.367Z,65.11
2023-04-15T14:57:57.343Z,66.93
2023-04-15T15:01:02.076Z,70.02
2023-04-15T15:04:05.225Z,69.99
2023-04-15T15:07:08.424Z,71.37
2023-04-15T15:10:11.288Z,72.05
2023-04-15T15:13:15.109Z,73.34
2023-04-15T15:16:18.600Z,76.35
2023-04-15T15:19:22.514Z,78.64
2023-04-15T15:22:26.282Z,80.41
2023-04-15T15:25:29.580Z,81.50
2023-04-15T15:28:32.530Z,84.96
2023-04-15T15:31:36.256Z,87.67
2023-04-15T15:34:39.429Z,86.67
2023-04-15T15:37:43.458Z,84.70
2023-04-15T15:40:46.414Z,84.46
2023-04-15T15:43:49.725Z,81.44
2023-04-15T15:46:52.732Z,81.18
2023-04-15T15:49:55.863Z,80.88
2023-04-15T15:52:59.091Z,80.56
2023-04-15T15:56:05.469Z,82.22
2023-04-15T15:59:09.158Z,83.53
2023-04-15T16:02:14.551Z,83.91
2023-04-15T16:05:18.163Z,83.00
2023-04-15T16:08:21.584Z,82.69
2023-04-15T16:11:24.954Z,81.84
2023-04-15T16:14:28.411Z,80.52
2023-04-15T16:17:32.620Z,78.45
2023-04-15T16:20:35.838Z,79.97
2023-04-15T16:23:39.120Z,79.41
2023-04-15T16:26:42.403Z,76.65
2023-04-15T16:29:45.756Z,78.30
2023-04-15T16:32:48.856Z,75.83
2023-04-15T16:35:53.121Z,76.08
2023-04-15T16:38:56.810Z,77.27
2023-04-15T16:42:00.483Z,78.22
2023-04-15T16:45:03.413Z,79.26
2023-04-15T16:48:12.386Z,79.87
2023-04-15T16:51:15.602Z,81.80
2023-04-15T16:54:19.585Z,82.07
2023-04-15T16:57:22.520Z,81.62
2023-04-15T17:00:28.958Z,81.38
2023-04-15T17:03:32.376Z,82.11
2023-04-15T17:06:37.143Z,83.70
2023-04-15T17:09:40.577Z,83.11
2023-04-15T17:12:53.065Z,83.82
2023-04-15T17:15:56.287Z,84.46
2023-04-15T17:19:00.600Z,84.16
2023-04-15T17:25:25.751Z,86.58
2023-04-15T17:28:42.012Z,86.17
2023-04-15T17:35:02.042Z,87.44
2023-04-15T17:38:05.550Z,88.96
2023-04-15T17:41:10.696Z,90.14
2023-04-15T17:44:34.039Z,90.45
2023-04-15T17:47:37.229Z,90.18
2023-04-15T17:50:53.940Z,91.94
2023-04-15T17:53:57.117Z,92.46
2023-04-15T17:57:01.539Z,92.12
2023-04-15T18:00:06.286Z,93.39
2023-04-15T18:03:15.726Z,94.90
2023-04-15T18:06:22.555Z,94.87
2023-04-15T18:09:27.760Z,95.60
2023-04-15T18:12:31.567Z,95.50
2023-04-15T18:15:35.394Z,95.79
2023-04-15T18:18:39.736Z,96.47
2023-04-15T18:21:43.271Z,96.45
2023-04-15T18:24:47.419Z,97.31
2023-04-15T18:27:51.448Z,97.38
2023-04-15T18:30:57.115Z,97.87
2023-04-15T18:34:00.782Z,97.67
2023-04-15T18:37:08.070Z,97.72
2023-04-15T18:40:12.321Z,97.32
2023-04-15T18:43:16.276Z,97.30
2023-04-15T18:46:20.921Z,97.42
2023-04-15T18:49:24.773Z,97.60
2023-04-15T18:52:28.789Z,98.08
2023-04-15T18:55:34.988Z,98.21
2023-04-15T18:59:08.576Z,98.48
2023-04-15T19:02:03.686Z,99.00
2023-04-15T19:05:07.525Z,99.58
2023-04-15T19:08:13.170Z,99.89
2023-04-15T19:11:17.443Z,100.00
2023-04-15T19:14:21.844Z,100.00
2023-04-15T19:17:25.764Z,100.00
2023-04-15T19:20:29.837Z,100.00
2023-04-15T19:23:33.972Z,100.00
2023-04-15T19:26:39.239Z,100.00
2023-04-15T19:29:43.207Z,100.00
2023-04-15T19:32:47.295Z,100.00
2023-04-15T19:35:51.968Z,100.00
2023-04-15T19:38:56.791Z,100.00
2023-04-15T19:42:10.036Z,100.00
2023-04-15T19:45:14.156Z,100.00
2023-04-15T19:48:19.833Z,100.00
2023-04-15T19:51:24.319Z,100.00
2023-04-15T19:54:28.421Z,100.00
2023-04-15T19:57:34.649Z,100.00
2023-04-15T20:00:40.259Z,100.00
2023-04-15T20:03:44.546Z,100.00
2023-04-15T20:06:49.419Z,100.00
2023-04-15T20:09:54.073Z,100.00
2023-04-15T20:12:58.169Z,100.00
2023-04-15T20:16:02.786Z,100.00
2023-04-15T20:19:09.955Z,100.00
2023-04-15T20:22:13.817Z,100.00
2023-04-15T20:25:17.802Z,100.00
2023-04-15T20:28:25.364Z,100.00
2023-04-15T20:31:29.065Z,100.00
2023-04-15T20:34:32.488Z,100.00
2023-04-15T20:37:38.219Z,100.00
2023-04-15T20:40:43.692Z,100.00
2023-04-15T20:43:47.540Z,100.00
2023-04-15T20:46:52.720Z,100.00
2023-04-15T20:49:56.300Z,100.00
2023-04-15T20:53:00.132Z,100.00
2023-04-15T20:56:03.392Z,100.00
2023-04-15T20:59:07.080Z,100.00
2023-04-15T21:02:11.027Z,100.00
2023-04-15T21:05:14.750Z,100.00
2023-04-15T21:08:17.631Z,100.00
2023-04-15T21:11:38.776Z,100.00
2023-04-15T21:14:43.988Z,100.00
2023-04-15T21:17:48.596Z,100.00
2023-04-15T21:20:58.378Z,100.00
2023-04-15T21:24:01.578Z,100.00
2023-04-15T21:27:06.025Z,100.00
2023-04-15T21:30:11.142Z,100.00
2023-04-15T21:33:14.103Z,100.00
2023-04-15T21:36:18.432Z,100.00
2023-04-15T21:39:21.714Z,100.00
2023-04-15T21:42:25.034Z,100.00
2023-04-15T21:45:28.106Z,100.00
2023-04-15T21:48:31.767Z,100.00
2023-04-15T21:51:34.750Z,100.00
2023-04-15T21:54:38.189Z,100.00
2023-04-15T21:57:41.095Z,100.00
2023-04-15T22:00:44.381Z,100.00
2023-04-15T22:03:47.772Z,100.00
2023-04-15T22:06:52.335Z,100.00
2023-04-15T22:09:55.601Z,100.00
2023-04-15T22:13:02.882Z,100.00
2023-04-15T22:16:06.281Z,100.00
2023-04-15T22:19:10.824Z,100.00
2023-04-15T22:22:14.037Z,100.00
2023-04-15T22:25:17.401Z,100.00
2023-04-15T22:28:20.661Z,100.00
2023-04-15T22:31:23.576Z,100.00
2023-04-15T22:34:26.824Z,100.00
2023-04-15T22:37:30.892Z,100.00
2023-04-15T22:40:34.477Z,100.00
2023-04-15T22:43:37.472Z,100.00
2023-04-15T22:46:41.241Z,100.00
2023-04-15T22:49:45.079Z,100.00
2023-04-15T22:52:48.785Z,100.00
2023-04-15T22:55:52.120Z,100.00
2023-04-15T22:58:55.452Z,100.00
2023-04-15T23:01:59.536Z,100.00
2023-04-15T23:05:11.820Z,100.00
2023-04-15T23:08:16.474Z,100.00
2023-04-15T23:11:19.702Z,100.00
2023-04-15T23:14:23.181Z,100.00
2023-04-15T23:17:26.868Z,100.00
2023-04-15T23:20:29.813Z,100.00
2023-04-15T23:23:33.624Z,100.00
2023-04-15T23:26:36.514Z,100.00
2023-04-15T23:29:39.748Z,100.00
2023-04-15T23:32:42.838Z,100.00
2023-04-15T23:35:46.668Z,100.00
2023-04-15T23:38:49.549Z,100.00
2023-04-15T23:41:53.217Z,100.00
2023-04-15T23:44:56.413Z,100.00
2023-04-15T23:47:59.745Z,100.00
2023-04-15T23:51:02.798Z,100.00
2023-04-15T23:54:06.128Z,100.00
2023-04-15T23:57:09.146Z,100.00
